sensor_id;sensor_type;location;lat;lon;timestamp;P1;durP1;ratioP1;P2;durP2;ratioP2
11823;SDS011;5969;50.780;7.726;2023-04-12T10:10:40;1.13;;;0.80;;
11823;SDS011;5969;50.780;7.726;2023-04-12T10:13:16;1.00;;;0.90;;
11823;SDS011;5969;50.780;7.726;2023-04-12T10:15:44;1.38;;;0.95;;
11823;SDS011;5969;50.780;7.726;2023-04-12T10:18:16;1.00;;;0.90;;
11823;SDS011;5969;50.780;7.726;2023-04-12T10:23:26;1.58;;;0.80;;
11823;SDS011;5969;50.780;7.726;2023-04-12T10:25:55;2.22;;;1.25;;
11823;SDS011;5969;50.780;7.726;2023-04-12T10:28:33;0.77;;;0.70;;
11823;SDS011;5969;50.780;7.726;2023-04-12T10:34:27;1.10;;;1.00;;
11823;SDS011;5969;50.780;7.726;2023-04-12T10:36:59;1.50;;;0.98;;
11823;SDS011;5969;50.780;7.726;2023-04-12T10:39:35;0.90;;;0.90;;
11823;SDS011;5969;50.780;7.726;2023-04-12T15:05:37;1.95;;;1.05;;
11823;SDS011;5969;50.780;7.726;2023-04-12T15:08:04;1.80;;;0.88;;
11823;SDS011;5969;50.780;7.726;2023-04-12T15:10:31;2.10;;;0.95;;
11823;SDS011;5969;50.780;7.726;2023-04-12T15:12:58;1.80;;;1.10;;
11823;SDS011;5969;50.780;7.726;2023-04-12T15:15:25;1.83;;;1.10;;
11823;SDS011;5969;50.780;7.726;2023-04-12T15:17:52;2.00;;;1.20;;
11823;SDS011;5969;50.780;7.726;2023-04-12T15:20:19;4.25;;;1.35;;
11823;SDS011;5969;50.780;7.726;2023-04-12T15:22:47;2.35;;;1.20;;
11823;SDS011;5969;50.780;7.726;2023-04-12T15:25:13;1.42;;;1.15;;
11823;SDS011;5969;50.780;7.726;2023-04-12T15:27:40;2.58;;;1.20;;
11823;SDS011;5969;50.780;7.726;2023-04-12T15:30:08;2.60;;;0.95;;
11823;SDS011;5969;50.780;7.726;2023-04-12T15:32:39;2.92;;;1.20;;
11823;SDS011;5969;50.780;7.726;2023-04-12T15:35:06;1.10;;;0.90;;
11823;SDS011;5969;50.780;7.726;2023-04-12T15:37:34;1.67;;;0.95;;
11823;SDS011;5969;50.780;7.726;2023-04-12T15:40:05;1.35;;;1.00;;
11823;SDS011;5969;50.780;7.726;2023-04-12T15:42:38;1.67;;;1.00;;
11823;SDS011;5969;50.780;7.726;2023-04-12T15:45:06;1.63;;;0.85;;
11823;SDS011;5969;50.780;7.726;2023-04-12T15:47:33;1.70;;;1.00;;
11823;SDS011;5969;50.780;7.726;2023-04-12T15:50:00;4.05;;;1.20;;
11823;SDS011;5969;50.780;7.726;2023-04-12T15:52:27;1.42;;;1.00;;
11823;SDS011;5969;50.780;7.726;2023-04-12T15:54:53;2.03;;;1.02;;
11823;SDS011;5969;50.780;7.726;2023-04-12T15:57:21;3.58;;;2.17;;
11823;SDS011;5969;50.780;7.726;2023-04-12T15:59:49;2.38;;;1.00;;
11823;SDS011;5969;50.780;7.726;2023-04-12T16:02:16;1.80;;;1.10;;
11823;SDS011;5969;50.780;7.726;2023-04-12T16:04:43;1.98;;;0.90;;
11823;SDS011;5969;50.780;7.726;2023-04-12T16:07:10;3.05;;;1.10;;
11823;SDS011;5969;50.780;7.726;2023-04-12T16:09:38;2.42;;;1.50;;
11823;SDS011;5969;50.780;7.726;2023-04-12T16:12:05;3.15;;;1.52;;
11823;SDS011;5969;50.780;7.726;2023-04-12T16:14:33;2.55;;;1.25;;
11823;SDS011;5969;50.780;7.726;2023-04-12T16:17:00;3.03;;;1.30;;
11823;SDS011;5969;50.780;7.726;2023-04-12T16:19:27;10.98;;;2.50;;
11823;SDS011;5969;50.780;7.726;2023-04-12T16:21:54;3.90;;;1.33;;
11823;SDS011;5969;50.780;7.726;2023-04-12T16:24:20;4.50;;;1.42;;
11823;SDS011;5969;50.780;7.726;2023-04-12T16:26:47;5.50;;;2.45;;
11823;SDS011;5969;50.780;7.726;2023-04-12T16:29:14;3.22;;;2.13;;
11823;SDS011;5969;50.780;7.726;2023-04-12T16:31:42;6.03;;;2.22;;
11823;SDS011;5969;50.780;7.726;2023-04-12T16:34:08;4.03;;;1.63;;
11823;SDS011;5969;50.780;7.726;2023-04-12T16:36:35;9.63;;;5.65;;
11823;SDS011;5969;50.780;7.726;2023-04-12T16:39:02;4.93;;;2.03;;
11823;SDS011;5969;50.780;7.726;2023-04-12T16:41:30;5.03;;;2.00;;
11823;SDS011;5969;50.780;7.726;2023-04-12T16:43:57;6.10;;;1.80;;
11823;SDS011;5969;50.780;7.726;2023-04-12T16:46:27;4.43;;;1.80;;
11823;SDS011;5969;50.780;7.726;2023-04-12T16:48:55;5.38;;;1.80;;
11823;SDS011;5969;50.780;7.726;2023-04-12T16:51:22;5.15;;;1.90;;
11823;SDS011;5969;50.780;7.726;2023-04-12T16:53:50;5.72;;;2.00;;
11823;SDS011;5969;50.780;7.726;2023-04-12T16:56:16;3.47;;;1.90;;
11823;SDS011;5969;50.780;7.726;2023-04-12T16:58:43;4.82;;;1.70;;
11823;SDS011;5969;50.780;7.726;2023-04-12T17:01:12;5.35;;;1.40;;
11823;SDS011;5969;50.780;7.726;2023-04-12T17:03:40;5.57;;;1.60;;
11823;SDS011;5969;50.780;7.726;2023-04-12T17:06:08;2.72;;;1.83;;
11823;SDS011;5969;50.780;7.726;2023-04-12T17:08:34;3.75;;;2.05;;
11823;SDS011;5969;50.780;7.726;2023-04-12T17:11:01;6.47;;;2.47;;
11823;SDS011;5969;50.780;7.726;2023-04-12T17:13:28;7.80;;;2.22;;
11823;SDS011;5969;50.780;7.726;2023-04-12T17:15:55;5.70;;;2.00;;
11823;SDS011;5969;50.780;7.726;2023-04-12T17:18:22;5.75;;;2.15;;
11823;SDS011;5969;50.780;7.726;2023-04-12T17:20:48;3.90;;;2.22;;
11823;SDS011;5969;50.780;7.726;2023-04-12T17:23:16;8.35;;;2.05;;
11823;SDS011;5969;50.780;7.726;2023-04-12T17:25:44;4.13;;;1.70;;
11823;SDS011;5969;50.780;7.726;2023-04-12T17:28:11;6.50;;;2.45;;
11823;SDS011;5969;50.780;7.726;2023-04-12T17:30:38;4.38;;;2.00;;
11823;SDS011;5969;50.780;7.726;2023-04-12T17:33:05;6.40;;;2.25;;
11823;SDS011;5969;50.780;7.726;2023-04-12T17:35:32;5.72;;;2.33;;
11823;SDS011;5969;50.780;7.726;2023-04-12T17:37:59;4.40;;;2.50;;
11823;SDS011;5969;50.780;7.726;2023-04-12T17:40:27;4.88;;;2.20;;
11823;SDS011;5969;50.780;7.726;2023-04-12T17:42:53;8.00;;;2.90;;
11823;SDS011;5969;50.780;7.726;2023-04-12T17:45:20;6.82;;;3.20;;
11823;SDS011;5969;50.780;7.726;2023-04-12T17:47:47;6.25;;;3.20;;
11823;SDS011;5969;50.780;7.726;2023-04-12T17:50:14;6.53;;;3.42;;
11823;SDS011;5969;50.780;7.726;2023-04-12T17:52:41;7.10;;;3.03;;
11823;SDS011;5969;50.780;7.726;2023-04-12T17:55:08;5.45;;;3.30;;
11823;SDS011;5969;50.780;7.726;2023-04-12T17:57:37;7.60;;;4.13;;
11823;SDS011;5969;50.780;7.726;2023-04-12T18:00:04;8.02;;;4.28;;
11823;SDS011;5969;50.780;7.726;2023-04-12T18:02:33;6.28;;;4.07;;
11823;SDS011;5969;50.780;7.726;2023-04-12T18:05:00;7.70;;;4.30;;
11823;SDS011;5969;50.780;7.726;2023-04-12T18:07:28;9.35;;;4.07;;
11823;SDS011;5969;50.780;7.726;2023-04-12T18:09:56;8.77;;;4.05;;
11823;SDS011;5969;50.780;7.726;2023-04-12T18:12:23;9.63;;;3.83;;
11823;SDS011;5969;50.780;7.726;2023-04-12T18:14:51;10.68;;;4.53;;
11823;SDS011;5969;50.780;7.726;2023-04-12T18:17:18;7.80;;;4.07;;
11823;SDS011;5969;50.780;7.726;2023-04-12T18:19:45;7.00;;;3.88;;
11823;SDS011;5969;50.780;7.726;2023-04-12T18:22:11;8.70;;;4.00;;
11823;SDS011;5969;50.780;7.726;2023-04-12T18:24:38;6.32;;;3.42;;
11823;SDS011;5969;50.780;7.726;2023-04-12T18:27:05;7.45;;;3.75;;
11823;SDS011;5969;50.780;7.726;2023-04-12T18:29:31;6.03;;;3.60;;
11823;SDS011;5969;50.780;7.726;2023-04-12T18:31:59;7.82;;;3.88;;
11823;SDS011;5969;50.780;7.726;2023-04-12T18:34:26;4.38;;;3.38;;
11823;SDS011;5969;50.780;7.726;2023-04-12T18:36:53;8.20;;;3.75;;
11823;SDS011;5969;50.780;7.726;2023-04-12T18:39:19;5.85;;;2.90;;
11823;SDS011;5969;50.780;7.726;2023-04-12T18:41:46;4.38;;;2.30;;
11823;SDS011;5969;50.780;7.726;2023-04-12T18:44:13;6.97;;;3.08;;
11823;SDS011;5969;50.780;7.726;2023-04-12T18:46:43;5.28;;;2.80;;
11823;SDS011;5969;50.780;7.726;2023-04-12T18:49:11;7.05;;;2.42;;
11823;SDS011;5969;50.780;7.726;2023-04-12T18:51:38;5.80;;;3.00;;
11823;SDS011;5969;50.780;7.726;2023-04-12T18:54:06;4.85;;;2.60;;
11823;SDS011;5969;50.780;7.726;2023-04-12T18:56:36;4.95;;;2.80;;
11823;SDS011;5969;50.780;7.726;2023-04-12T18:59:06;9.45;;;3.30;;
11823;SDS011;5969;50.780;7.726;2023-04-12T19:01:33;3.90;;;2.65;;
11823;SDS011;5969;50.780;7.726;2023-04-12T19:04:00;3.90;;;2.80;;
11823;SDS011;5969;50.780;7.726;2023-04-12T19:06:30;4.20;;;2.53;;
11823;SDS011;5969;50.780;7.726;2023-04-12T19:08:58;5.60;;;3.20;;
11823;SDS011;5969;50.780;7.726;2023-04-12T19:11:25;3.28;;;2.63;;
11823;SDS011;5969;50.780;7.726;2023-04-12T19:13:52;6.20;;;2.90;;
11823;SDS011;5969;50.780;7.726;2023-04-12T19:16:20;4.15;;;3.25;;
11823;SDS011;5969;50.780;7.726;2023-04-12T19:18:48;6.43;;;3.25;;
11823;SDS011;5969;50.780;7.726;2023-04-12T19:21:15;4.25;;;2.88;;
11823;SDS011;5969;50.780;7.726;2023-04-12T19:23:43;4.07;;;2.65;;
11823;SDS011;5969;50.780;7.726;2023-04-12T19:26:09;4.70;;;3.00;;
11823;SDS011;5969;50.780;7.726;2023-04-12T19:28:36;6.38;;;2.80;;
11823;SDS011;5969;50.780;7.726;2023-04-12T19:31:04;4.97;;;2.33;;
11823;SDS011;5969;50.780;7.726;2023-04-12T19:33:32;3.85;;;2.20;;
11823;SDS011;5969;50.780;7.726;2023-04-12T19:35:59;4.72;;;2.60;;
11823;SDS011;5969;50.780;7.726;2023-04-12T19:38:26;3.00;;;2.40;;
11823;SDS011;5969;50.780;7.726;2023-04-12T19:40:54;3.47;;;2.28;;
11823;SDS011;5969;50.780;7.726;2023-04-12T19:43:21;4.60;;;2.40;;
11823;SDS011;5969;50.780;7.726;2023-04-12T19:45:49;2.95;;;1.90;;
11823;SDS011;5969;50.780;7.726;2023-04-12T19:48:16;3.58;;;1.98;;
11823;SDS011;5969;50.780;7.726;2023-04-12T19:50:44;3.67;;;2.17;;
11823;SDS011;5969;50.780;7.726;2023-04-12T19:53:11;5.50;;;1.70;;
11823;SDS011;5969;50.780;7.726;2023-04-12T19:55:43;5.85;;;1.95;;
11823;SDS011;5969;50.780;7.726;2023-04-12T19:58:11;3.42;;;1.83;;
11823;SDS011;5969;50.780;7.726;2023-04-12T20:00:38;5.13;;;1.73;;
11823;SDS011;5969;50.780;7.726;2023-04-12T20:03:05;3.08;;;1.65;;
11823;SDS011;5969;50.780;7.726;2023-04-12T20:05:33;3.30;;;2.05;;
11823;SDS011;5969;50.780;7.726;2023-04-12T20:07:59;4.93;;;2.30;;
11823;SDS011;5969;50.780;7.726;2023-04-12T20:10:26;2.63;;;2.00;;
11823;SDS011;5969;50.780;7.726;2023-04-12T20:12:53;3.08;;;1.90;;
11823;SDS011;5969;50.780;7.726;2023-04-12T20:15:21;4.05;;;2.13;;
11823;SDS011;5969;50.780;7.726;2023-04-12T20:17:48;3.03;;;2.30;;
11823;SDS011;5969;50.780;7.726;2023-04-12T20:20:15;1.88;;;1.67;;
11823;SDS011;5969;50.780;7.726;2023-04-12T20:22:43;2.83;;;2.00;;
11823;SDS011;5969;50.780;7.726;2023-04-12T20:25:11;4.97;;;2.28;;
11823;SDS011;5969;50.780;7.726;2023-04-12T20:27:38;5.05;;;2.17;;
11823;SDS011;5969;50.780;7.726;2023-04-12T20:30:05;3.65;;;2.10;;
11823;SDS011;5969;50.780;7.726;2023-04-12T20:32:36;3.05;;;1.80;;
11823;SDS011;5969;50.780;7.726;2023-04-12T20:35:03;5.18;;;1.80;;
11823;SDS011;5969;50.780;7.726;2023-04-12T20:37:30;4.30;;;2.20;;
11823;SDS011;5969;50.780;7.726;2023-04-12T20:39:57;5.70;;;2.33;;
11823;SDS011;5969;50.780;7.726;2023-04-12T20:42:24;5.82;;;2.30;;
11823;SDS011;5969;50.780;7.726;2023-04-12T20:44:52;3.15;;;2.60;;
11823;SDS011;5969;50.780;7.726;2023-04-12T20:47:18;4.28;;;2.90;;
11823;SDS011;5969;50.780;7.726;2023-04-12T20:49:47;4.28;;;2.30;;
11823;SDS011;5969;50.780;7.726;2023-04-12T20:52:14;4.40;;;2.30;;
11823;SDS011;5969;50.780;7.726;2023-04-12T20:54:42;3.50;;;2.33;;
11823;SDS011;5969;50.780;7.726;2023-04-12T20:57:12;3.75;;;2.35;;
11823;SDS011;5969;50.780;7.726;2023-04-12T20:59:43;2.30;;;2.10;;
11823;SDS011;5969;50.780;7.726;2023-04-12T21:02:10;5.95;;;2.28;;
11823;SDS011;5969;50.780;7.726;2023-04-12T21:04:40;4.55;;;2.30;;
11823;SDS011;5969;50.780;7.726;2023-04-12T21:07:08;2.50;;;2.10;;
11823;SDS011;5969;50.780;7.726;2023-04-12T21:09:35;5.60;;;2.30;;
11823;SDS011;5969;50.780;7.726;2023-04-12T21:12:02;2.60;;;1.92;;
11823;SDS011;5969;50.780;7.726;2023-04-12T21:14:31;2.33;;;1.80;;
11823;SDS011;5969;50.780;7.726;2023-04-12T21:16:58;3.85;;;1.52;;
11823;SDS011;5969;50.780;7.726;2023-04-12T21:19:26;3.42;;;1.65;;
11823;SDS011;5969;50.780;7.726;2023-04-12T21:21:53;3.00;;;1.52;;
11823;SDS011;5969;50.780;7.726;2023-04-12T21:24:21;3.25;;;1.50;;
11823;SDS011;5969;50.780;7.726;2023-04-12T21:26:52;2.35;;;1.33;;
11823;SDS011;5969;50.780;7.726;2023-04-12T21:29:20;2.70;;;1.40;;
11823;SDS011;5969;50.780;7.726;2023-04-12T21:31:47;3.60;;;1.35;;
11823;SDS011;5969;50.780;7.726;2023-04-12T21:34:14;3.33;;;1.35;;
11823;SDS011;5969;50.780;7.726;2023-04-12T21:36:41;2.05;;;1.10;;
11823;SDS011;5969;50.780;7.726;2023-04-12T21:39:08;2.40;;;1.30;;
11823;SDS011;5969;50.780;7.726;2023-04-12T21:41:36;2.83;;;1.35;;
11823;SDS011;5969;50.780;7.726;2023-04-12T21:44:04;2.08;;;1.20;;
11823;SDS011;5969;50.780;7.726;2023-04-12T21:46:32;2.53;;;0.90;;
11823;SDS011;5969;50.780;7.726;2023-04-12T21:48:58;2.92;;;1.40;;
11823;SDS011;5969;50.780;7.726;2023-04-12T21:51:25;3.08;;;1.10;;
11823;SDS011;5969;50.780;7.726;2023-04-12T21:53:52;5.22;;;1.35;;
11823;SDS011;5969;50.780;7.726;2023-04-12T21:56:18;1.52;;;1.33;;
11823;SDS011;5969;50.780;7.726;2023-04-12T21:58:46;3.03;;;1.10;;
11823;SDS011;5969;50.780;7.726;2023-04-12T22:01:13;2.35;;;1.30;;
11823;SDS011;5969;50.780;7.726;2023-04-12T22:03:41;3.30;;;1.05;;
11823;SDS011;5969;50.780;7.726;2023-04-12T22:06:08;1.10;;;1.00;;
11823;SDS011;5969;50.780;7.726;2023-04-12T22:08:36;3.30;;;1.00;;
11823;SDS011;5969;50.780;7.726;2023-04-12T22:11:07;2.03;;;0.93;;
11823;SDS011;5969;50.780;7.726;2023-04-12T22:13:35;1.40;;;1.00;;
11823;SDS011;5969;50.780;7.726;2023-04-12T22:16:07;1.23;;;0.90;;
11823;SDS011;5969;50.780;7.726;2023-04-12T22:18:36;3.08;;;1.10;;
11823;SDS011;5969;50.780;7.726;2023-04-12T22:21:02;2.13;;;1.60;;
11823;SDS011;5969;50.780;7.726;2023-04-12T22:23:31;1.05;;;0.90;;
